Aviation Digital Data Service (ADDS)

Output produced by METARs form (0755 UTC 18 November 2018)
found at http://www.aviationweather.gov/metar/data/
 
METAR text: RJBD 180700Z 19004KT 150V250 9999 FEW035 SCT050 BKN170 17/09 Q1016
Conditions at: RJBD (NANKISHIRAHAMA A, JP) observed 0700 UTC 18 November 2018
Temperature: 17.0°C (63°F)
Dewpoint: 9.0°C (48°F) [RH = 59%]
Pressure (altimeter): 30.00 inches Hg (1016.0 mb)
Winds: from the S (190 degrees) at 5 MPH (4 knots; 2.1 m/s)
Visibility: 6 or more miles (10+ km)
Ceiling: 17000 feet AGL
Clouds: few clouds at 3500 feet AGL
scattered clouds at 5000 feet AGL
broken clouds at 17000 feet AGL
Weather: no significant weather observed at this time